Accueil
METAR-TAF:

METAR-TAF

Aéroports :

Mbanza-Kongo, Angola

latitude: 6-16-15S, longitude: 14-14-50E, altitude: 567 m

Observation

Le bulletin a été fait il y a 1 heure et 12 minutes, à 16:00 UTC
Vent 8 kt de nord-ouest
Température 28°C
Humidité 70%
Pression 1008 hPa
Visibilité: 6000 m
Nuages épars à une hauteur de 1400 ft
Quelques nuages à une hauteur de 1700 ft, Cumulonimbus.
pluie

METAR: FNBC 241600Z 31008KT 6000 RA SCT014 FEW017CB 28/22 Q1008

Heure: 18:12 (17:12 UTC)


TAF: absent

Observations et prévisions météorologiques de plus de 4000 aéroports (messages METAR et TAF).

Les stations disponibles sont représentées par des disques jaunes et rouges sur la carte.

Passer la souris dessus pour voir le nom de la station.

Cliquer dessus pour voir les observations et prévisions météorologiques.

Pour changer de carte: cliquez sur les boutons verts avec une croix noire pour zoomer, sur le bouton vert avec un tiret pour effectuer un zoom arrière, ou sur les flèches vertes pour les cartes adjacentes.


METAR-TAF: